SVR299 USSS-UHBB
Flight info
| Callsign | SVR299 |
|---|---|
| Flight time | N/A |
| Altitude | 33000 |
| Route | DOSUM6K DOSUM T377 SALER N992 BUMON/K0848F350 N992 GU G229 UDRIL N620 BADOM M160 RUNET RUNET2X |
| Aircraft | A320/M-SDE3FGHIRWY/LB1 |
Departure
| Time | N/A |
|---|---|
| Airport | Koltsovo Airport (USSS) |
Arrival
| Time | 2026-04-16 13:47 |
|---|---|
| Airport | Ignatyevo Airport (UHBB) |
| Time | Latitude | Longitude | Altitude | Speed | Heading |
|---|---|---|---|---|---|
| 2026-04-16 08:29 | 57.50056 | 62.37301 | 26407 ft | 439 kts | 63° |
| 2026-04-16 08:29 | 57.51057 | 62.42592 | 26618 ft | 439 kts | 63° |
| 2026-04-16 08:30 | 57.52075 | 62.47952 | 26837 ft | 439 kts | 63° |
| 2026-04-16 08:30 | 57.53097 | 62.53299 | 27056 ft | 439 kts | 63° |
| 2026-04-16 08:30 | 57.54125 | 62.58642 | 27274 ft | 438 kts | 63° |
| 2026-04-16 08:30 | 57.55158 | 62.63986 | 27495 ft | 438 kts | 63° |
| 2026-04-16 08:31 | 57.56188 | 62.69325 | 27716 ft | 438 kts | 63° |
| 2026-04-16 08:31 | 57.57216 | 62.74671 | 27937 ft | 438 kts | 63° |
| 2026-04-16 08:31 | 57.58241 | 62.80013 | 28153 ft | 438 kts | 63° |
| 2026-04-16 08:31 | 57.59259 | 62.85362 | 28387 ft | 438 kts | 63° |
| 2026-04-16 08:32 | 57.60273 | 62.90708 | 28622 ft | 437 kts | 63° |
| 2026-04-16 08:32 | 57.61283 | 62.96048 | 28858 ft | 437 kts | 63° |
| 2026-04-16 08:32 | 57.62296 | 63.01398 | 29089 ft | 437 kts | 63° |
| 2026-04-16 08:32 | 57.63303 | 63.06743 | 29325 ft | 437 kts | 63° |
| 2026-04-16 08:33 | 57.66318 | 63.22857 | 30006 ft | 436 kts | 63° |
| 2026-04-16 08:33 | 57.67315 | 63.28220 | 30226 ft | 436 kts | 63° |
| 2026-04-16 08:34 | 57.68307 | 63.33574 | 30429 ft | 436 kts | 63° |
| 2026-04-16 08:34 | 57.69297 | 63.38928 | 30610 ft | 436 kts | 63° |
| 2026-04-16 08:34 | 57.70284 | 63.44282 | 30791 ft | 436 kts | 63° |
| 2026-04-16 08:34 | 57.71271 | 63.49635 | 30965 ft | 436 kts | 63° |
| 2026-04-16 08:35 | 57.72255 | 63.54995 | 31141 ft | 436 kts | 63° |
| 2026-04-16 08:35 | 57.73237 | 63.60363 | 31314 ft | 436 kts | 63° |
| 2026-04-16 08:35 | 57.74213 | 63.65734 | 31497 ft | 435 kts | 64° |
| 2026-04-16 08:35 | 57.75185 | 63.71096 | 31673 ft | 435 kts | 64° |
| 2026-04-16 08:36 | 57.76159 | 63.76467 | 31849 ft | 435 kts | 64° |
| 2026-04-16 08:36 | 57.77130 | 63.81834 | 32021 ft | 435 kts | 64° |
| 2026-04-16 08:36 | 57.78096 | 63.87198 | 32182 ft | 435 kts | 64° |
| 2026-04-16 08:36 | 57.79061 | 63.92572 | 32370 ft | 435 kts | 64° |
| 2026-04-16 08:37 | 57.80010 | 63.97874 | 32541 ft | 435 kts | 64° |
| 2026-04-16 08:37 | 57.80969 | 64.03242 | 32720 ft | 435 kts | 64° |
| 2026-04-16 08:37 | 57.81929 | 64.08623 | 32887 ft | 434 kts | 64° |
| 2026-04-16 08:37 | 57.82829 | 64.14038 | 33051 ft | 438 kts | 69° |
| 2026-04-16 08:38 | 57.83417 | 64.19690 | 33205 ft | 443 kts | 72° |
| 2026-04-16 08:38 | 57.83944 | 64.25390 | 33361 ft | 443 kts | 72° |
| 2026-04-16 08:38 | 57.84467 | 64.31086 | 33523 ft | 443 kts | 72° |
| 2026-04-16 08:38 | 57.84987 | 64.36789 | 33687 ft | 443 kts | 72° |
| 2026-04-16 08:39 | 57.85502 | 64.42483 | 33851 ft | 442 kts | 72° |
| 2026-04-16 08:39 | 57.86014 | 64.48175 | 34015 ft | 442 kts | 72° |
| 2026-04-16 08:39 | 57.86527 | 64.53867 | 34178 ft | 442 kts | 72° |
| 2026-04-16 08:39 | 57.87038 | 64.59554 | 34322 ft | 442 kts | 72° |
| 2026-04-16 08:40 | 57.87548 | 64.65239 | 34449 ft | 442 kts | 72° |
| 2026-04-16 08:40 | 57.88054 | 64.70923 | 34570 ft | 442 kts | 72° |
| 2026-04-16 08:40 | 57.88555 | 64.76629 | 34697 ft | 442 kts | 73° |
| 2026-04-16 08:40 | 57.89050 | 64.82329 | 34817 ft | 442 kts | 73° |
| 2026-04-16 08:41 | 57.89536 | 64.87952 | 34940 ft | 442 kts | 73° |
| 2026-04-16 08:41 | 57.90028 | 64.93657 | 35067 ft | 441 kts | 73° |
| 2026-04-16 08:41 | 57.90517 | 64.99337 | 35203 ft | 441 kts | 73° |
| 2026-04-16 08:41 | 57.91009 | 65.05043 | 35248 ft | 442 kts | 73° |
| 2026-04-16 08:42 | 57.91980 | 65.16451 | 35244 ft | 442 kts | 73° |
| 2026-04-16 08:42 | 57.92943 | 65.27881 | 35245 ft | 442 kts | 73° |
| 2026-04-16 08:43 | 57.93894 | 65.39324 | 35245 ft | 443 kts | 73° |
| 2026-04-16 08:43 | 57.94832 | 65.50790 | 35244 ft | 443 kts | 73° |
| 2026-04-16 08:44 | 57.95762 | 65.62254 | 35255 ft | 443 kts | 73° |
| 2026-04-16 08:44 | 57.96693 | 65.73737 | 35256 ft | 444 kts | 73° |
| 2026-04-16 08:45 | 57.97609 | 65.85242 | 35261 ft | 444 kts | 73° |
| 2026-04-16 08:45 | 57.98505 | 65.96764 | 35265 ft | 445 kts | 74° |
| 2026-04-16 08:46 | 57.99387 | 66.08319 | 35265 ft | 445 kts | 74° |
| 2026-04-16 08:46 | 58.00245 | 66.19830 | 35266 ft | 446 kts | 74° |
| 2026-04-16 08:47 | 58.01095 | 66.31416 | 35267 ft | 447 kts | 74° |
| 2026-04-16 08:47 | 58.01942 | 66.43043 | 35265 ft | 447 kts | 74° |
| 2026-04-16 08:48 | 58.02784 | 66.54686 | 35266 ft | 448 kts | 74° |
| 2026-04-16 08:48 | 58.03615 | 66.66335 | 35266 ft | 449 kts | 75° |
| 2026-04-16 08:49 | 58.04433 | 66.78019 | 35263 ft | 449 kts | 75° |
| 2026-04-16 08:49 | 58.05246 | 66.89724 | 35263 ft | 450 kts | 75° |
| 2026-04-16 08:50 | 58.06067 | 67.01367 | 35262 ft | 450 kts | 75° |
| 2026-04-16 08:50 | 58.06892 | 67.13098 | 35264 ft | 451 kts | 75° |
| 2026-04-16 08:51 | 58.07700 | 67.24867 | 35266 ft | 452 kts | 75° |
| 2026-04-16 08:51 | 58.08492 | 67.36659 | 35266 ft | 453 kts | 75° |
| 2026-04-16 08:52 | 58.09269 | 67.48478 | 35267 ft | 454 kts | 75° |
| 2026-04-16 08:52 | 58.10033 | 67.60327 | 35267 ft | 454 kts | 76° |
| 2026-04-16 08:53 | 58.10800 | 67.72189 | 35261 ft | 455 kts | 76° |
| 2026-04-16 08:53 | 58.11565 | 67.84070 | 35259 ft | 455 kts | 76° |
| 2026-04-16 08:54 | 58.12314 | 67.95976 | 35265 ft | 456 kts | 76° |
| 2026-04-16 08:54 | 58.13052 | 68.07900 | 35263 ft | 457 kts | 76° |
| 2026-04-16 08:55 | 58.13770 | 68.19763 | 35267 ft | 457 kts | 77° |
| 2026-04-16 08:55 | 58.14501 | 68.31721 | 35258 ft | 457 kts | 75° |
| 2026-04-16 08:56 | 58.15486 | 68.43583 | 35260 ft | 455 kts | 73° |
| 2026-04-16 08:56 | 58.16573 | 68.55415 | 35253 ft | 456 kts | 73° |
| 2026-04-16 08:57 | 58.17614 | 68.67276 | 35259 ft | 457 kts | 74° |
| 2026-04-16 08:57 | 58.18597 | 68.79184 | 35252 ft | 458 kts | 75° |
| 2026-04-16 08:58 | 58.19557 | 68.91132 | 35260 ft | 459 kts | 75° |
| 2026-04-16 08:58 | 58.20503 | 69.03099 | 35246 ft | 459 kts | 75° |
| 2026-04-16 08:59 | 58.21299 | 69.13056 | 35247 ft | 460 kts | 75° |
| 2026-04-16 08:59 | 58.22252 | 69.25044 | 35245 ft | 460 kts | 76° |
| 2026-04-16 09:00 | 58.23191 | 69.37059 | 35246 ft | 461 kts | 76° |
| 2026-04-16 09:00 | 58.24114 | 69.49101 | 35241 ft | 461 kts | 76° |
| 2026-04-16 09:01 | 58.25472 | 69.67210 | 35232 ft | 462 kts | 76° |
| 2026-04-16 09:02 | 58.26363 | 69.79216 | 35233 ft | 463 kts | 77° |
| 2026-04-16 09:02 | 58.27245 | 69.91336 | 35233 ft | 463 kts | 77° |
| 2026-04-16 09:03 | 58.28129 | 70.03460 | 35233 ft | 463 kts | 77° |
| 2026-04-16 09:03 | 58.29008 | 70.15592 | 35235 ft | 464 kts | 77° |
| 2026-04-16 09:04 | 58.29859 | 70.27751 | 35226 ft | 464 kts | 77° |
| 2026-04-16 09:04 | 58.30693 | 70.39939 | 35225 ft | 465 kts | 77° |
| 2026-04-16 09:05 | 58.31525 | 70.52151 | 35230 ft | 465 kts | 77° |
| 2026-04-16 09:05 | 58.32355 | 70.64371 | 35230 ft | 466 kts | 78° |
| 2026-04-16 09:06 | 58.33170 | 70.76607 | 35228 ft | 466 kts | 78° |
| 2026-04-16 09:06 | 58.33968 | 70.88850 | 35226 ft | 467 kts | 78° |
| 2026-04-16 09:07 | 58.34749 | 71.01029 | 35222 ft | 467 kts | 78° |
| 2026-04-16 09:07 | 58.35532 | 71.13310 | 35226 ft | 467 kts | 78° |
| 2026-04-16 09:08 | 58.36301 | 71.25601 | 35223 ft | 468 kts | 78° |
| 2026-04-16 09:08 | 58.37057 | 71.37900 | 35219 ft | 468 kts | 79° |
| 2026-04-16 09:09 | 58.37798 | 71.50219 | 35214 ft | 468 kts | 79° |
| 2026-04-16 09:09 | 58.38534 | 71.62542 | 35207 ft | 468 kts | 79° |
| 2026-04-16 09:10 | 58.39261 | 71.74886 | 35209 ft | 469 kts | 79° |
| 2026-04-16 09:10 | 58.39965 | 71.87251 | 35209 ft | 470 kts | 79° |
| 2026-04-16 09:11 | 58.40658 | 71.99571 | 35209 ft | 470 kts | 79° |
| 2026-04-16 09:11 | 58.41352 | 72.11974 | 35209 ft | 471 kts | 79° |
| 2026-04-16 09:12 | 58.42032 | 72.24416 | 35206 ft | 472 kts | 80° |
| 2026-04-16 09:12 | 58.42691 | 72.36873 | 35210 ft | 472 kts | 80° |
| 2026-04-16 09:13 | 58.43346 | 72.49329 | 35203 ft | 472 kts | 80° |
| 2026-04-16 09:13 | 58.44000 | 72.61804 | 35202 ft | 472 kts | 80° |
| 2026-04-16 09:14 | 58.44625 | 72.74284 | 35194 ft | 472 kts | 81° |
| 2026-04-16 09:14 | 58.45243 | 72.86696 | 35190 ft | 473 kts | 81° |
| 2026-04-16 09:15 | 58.45851 | 72.99200 | 35188 ft | 473 kts | 81° |
| 2026-04-16 09:15 | 58.46442 | 73.11725 | 35190 ft | 474 kts | 81° |
| 2026-04-16 09:16 | 58.47038 | 73.24267 | 35191 ft | 474 kts | 81° |
| 2026-04-16 09:16 | 58.47652 | 73.36822 | 35187 ft | 475 kts | 81° |
| 2026-04-16 09:17 | 58.48258 | 73.49391 | 35187 ft | 475 kts | 81° |
| 2026-04-16 09:17 | 58.48849 | 73.61898 | 35188 ft | 476 kts | 81° |
| 2026-04-16 09:18 | 58.49442 | 73.74506 | 35188 ft | 476 kts | 81° |
| 2026-04-16 09:18 | 58.50011 | 73.87131 | 35187 ft | 477 kts | 82° |
| 2026-04-16 09:19 | 58.50552 | 73.99776 | 35184 ft | 478 kts | 82° |
| 2026-04-16 09:19 | 58.51088 | 74.12446 | 35182 ft | 478 kts | 82° |
| 2026-04-16 09:20 | 58.51623 | 74.25127 | 35185 ft | 478 kts | 82° |
| 2026-04-16 09:20 | 58.52143 | 74.37736 | 35178 ft | 479 kts | 82° |
| 2026-04-16 09:21 | 58.52644 | 74.50445 | 35178 ft | 479 kts | 82° |
| 2026-04-16 09:21 | 58.53130 | 74.63159 | 35176 ft | 479 kts | 82° |
| 2026-04-16 09:22 | 58.53614 | 74.75887 | 35168 ft | 480 kts | 82° |
| 2026-04-16 09:22 | 58.54090 | 74.88625 | 35166 ft | 480 kts | 82° |
| 2026-04-16 09:23 | 58.54553 | 75.01372 | 35161 ft | 480 kts | 83° |
| 2026-04-16 09:23 | 58.54997 | 75.14146 | 35160 ft | 481 kts | 83° |
| 2026-04-16 09:24 | 58.55430 | 75.26920 | 35152 ft | 481 kts | 83° |
| 2026-04-16 09:24 | 58.55845 | 75.39615 | 35152 ft | 481 kts | 83° |
| 2026-04-16 09:25 | 58.56253 | 75.52430 | 35148 ft | 482 kts | 83° |
| 2026-04-16 09:25 | 58.56643 | 75.65262 | 35151 ft | 483 kts | 83° |
| 2026-04-16 09:26 | 58.57023 | 75.78104 | 35149 ft | 483 kts | 83° |
| 2026-04-16 09:26 | 58.57396 | 75.90981 | 35147 ft | 484 kts | 83° |
| 2026-04-16 09:27 | 58.57757 | 76.03780 | 35147 ft | 485 kts | 84° |
| 2026-04-16 09:27 | 58.58095 | 76.16679 | 35145 ft | 485 kts | 84° |
| 2026-04-16 09:28 | 58.58429 | 76.29588 | 35150 ft | 485 kts | 84° |
| 2026-04-16 09:28 | 58.58758 | 76.42521 | 35146 ft | 486 kts | 84° |
| 2026-04-16 09:29 | 58.59084 | 76.55471 | 35147 ft | 486 kts | 83° |
| 2026-04-16 09:29 | 58.59588 | 76.68392 | 35142 ft | 486 kts | 82° |
| 2026-04-16 09:30 | 58.60177 | 76.81300 | 35137 ft | 486 kts | 82° |
| 2026-04-16 09:30 | 58.60720 | 76.94140 | 35132 ft | 486 kts | 82° |
| 2026-04-16 09:31 | 58.61217 | 77.07089 | 35132 ft | 487 kts | 82° |
| 2026-04-16 09:31 | 58.61687 | 77.20089 | 35134 ft | 488 kts | 83° |
| 2026-04-16 09:32 | 58.62157 | 77.33075 | 35133 ft | 488 kts | 83° |
| 2026-04-16 09:32 | 58.62628 | 77.46071 | 35132 ft | 488 kts | 83° |
| 2026-04-16 09:33 | 58.63067 | 77.59078 | 35126 ft | 489 kts | 83° |
| 2026-04-16 09:33 | 58.63496 | 77.72030 | 35132 ft | 490 kts | 83° |
| 2026-04-16 09:34 | 58.63912 | 77.85074 | 35129 ft | 490 kts | 83° |
| 2026-04-16 09:34 | 58.64318 | 77.98146 | 35130 ft | 491 kts | 83° |
| 2026-04-16 09:35 | 58.64707 | 78.11222 | 35131 ft | 491 kts | 83° |
| 2026-04-16 09:35 | 58.65089 | 78.24314 | 35130 ft | 491 kts | 83° |
| 2026-04-16 09:36 | 58.65464 | 78.37423 | 35127 ft | 492 kts | 84° |
| 2026-04-16 09:36 | 58.65819 | 78.50559 | 35125 ft | 492 kts | 84° |
| 2026-04-16 09:37 | 58.66157 | 78.63622 | 35128 ft | 493 kts | 84° |
| 2026-04-16 09:37 | 58.66476 | 78.76788 | 35124 ft | 494 kts | 84° |
| 2026-04-16 09:38 | 58.66794 | 78.89974 | 35126 ft | 494 kts | 84° |
| 2026-04-16 09:38 | 58.67108 | 79.03160 | 35123 ft | 494 kts | 84° |
| 2026-04-16 09:39 | 58.67399 | 79.16365 | 35116 ft | 495 kts | 85° |
| 2026-04-16 09:39 | 58.67671 | 79.29578 | 35114 ft | 495 kts | 85° |
| 2026-04-16 09:40 | 58.67932 | 79.42718 | 35117 ft | 496 kts | 85° |
| 2026-04-16 09:40 | 58.68179 | 79.55968 | 35112 ft | 496 kts | 85° |
| 2026-04-16 09:41 | 58.68413 | 79.69221 | 35111 ft | 496 kts | 85° |
| 2026-04-16 09:41 | 58.68670 | 79.82463 | 35104 ft | 496 kts | 85° |
| 2026-04-16 09:42 | 58.68951 | 79.95727 | 35111 ft | 497 kts | 85° |
| 2026-04-16 09:42 | 58.69215 | 80.08927 | 35110 ft | 497 kts | 85° |
| 2026-04-16 09:43 | 58.69446 | 80.22213 | 35112 ft | 497 kts | 85° |
| 2026-04-16 09:43 | 58.69663 | 80.35515 | 35113 ft | 498 kts | 85° |
| 2026-04-16 09:44 | 58.69876 | 80.48818 | 35110 ft | 498 kts | 85° |
| 2026-04-16 09:44 | 58.70082 | 80.62138 | 35109 ft | 498 kts | 86° |
| 2026-04-16 09:45 | 58.70265 | 80.75474 | 35110 ft | 499 kts | 86° |
| 2026-04-16 09:45 | 58.70426 | 80.88722 | 35106 ft | 499 kts | 86° |
| 2026-04-16 09:46 | 58.70571 | 81.02063 | 35108 ft | 499 kts | 86° |
| 2026-04-16 09:46 | 58.70710 | 81.15425 | 35108 ft | 499 kts | 86° |
| 2026-04-16 09:47 | 58.70842 | 81.28787 | 35107 ft | 500 kts | 86° |
| 2026-04-16 09:47 | 58.70963 | 81.42157 | 35107 ft | 500 kts | 87° |
| 2026-04-16 09:48 | 58.71058 | 81.55538 | 35106 ft | 500 kts | 87° |
| 2026-04-16 09:48 | 58.71130 | 81.68849 | 35101 ft | 501 kts | 87° |
| 2026-04-16 09:49 | 58.71194 | 81.82240 | 35105 ft | 501 kts | 87° |
| 2026-04-16 09:49 | 58.71247 | 81.95654 | 35103 ft | 501 kts | 88° |
| 2026-04-16 09:50 | 58.71288 | 82.09073 | 35098 ft | 502 kts | 88° |
| 2026-04-16 09:50 | 58.71320 | 82.22485 | 35096 ft | 502 kts | 88° |
| 2026-04-16 09:51 | 58.71329 | 82.35915 | 35098 ft | 502 kts | 88° |
| 2026-04-16 09:51 | 58.71325 | 82.49333 | 35092 ft | 502 kts | 88° |
| 2026-04-16 09:52 | 58.71303 | 82.62772 | 35095 ft | 502 kts | 88° |
| 2026-04-16 09:52 | 58.71274 | 82.76202 | 35091 ft | 502 kts | 89° |
| 2026-04-16 09:53 | 58.71236 | 82.89546 | 35083 ft | 502 kts | 89° |
| 2026-04-16 09:53 | 58.71184 | 83.02976 | 35080 ft | 502 kts | 89° |
| 2026-04-16 09:54 | 58.71108 | 83.16431 | 35077 ft | 502 kts | 89° |
| 2026-04-16 09:54 | 58.71016 | 83.29870 | 35071 ft | 503 kts | 89° |
| 2026-04-16 09:55 | 58.70916 | 83.43326 | 35070 ft | 503 kts | 89° |
| 2026-04-16 09:55 | 58.70804 | 83.56689 | 35069 ft | 503 kts | 89° |
| 2026-04-16 09:56 | 58.70676 | 83.70136 | 35071 ft | 503 kts | 90° |
| 2026-04-16 09:56 | 58.70525 | 83.83596 | 35060 ft | 503 kts | 90° |
| 2026-04-16 09:57 | 58.70364 | 83.97050 | 35058 ft | 503 kts | 90° |
| 2026-04-16 09:57 | 58.70199 | 84.10505 | 35055 ft | 503 kts | 90° |
| 2026-04-16 09:58 | 58.70018 | 84.23967 | 35054 ft | 503 kts | 90° |
| 2026-04-16 09:58 | 58.69820 | 84.37433 | 35047 ft | 504 kts | 90° |
| 2026-04-16 09:59 | 58.69616 | 84.50825 | 35049 ft | 504 kts | 91° |
| 2026-04-16 09:59 | 58.69396 | 84.64304 | 35054 ft | 504 kts | 91° |
| 2026-04-16 10:00 | 58.69152 | 84.77784 | 35042 ft | 504 kts | 91° |
| 2026-04-16 10:00 | 58.68892 | 84.91258 | 35044 ft | 504 kts | 91° |
| 2026-04-16 10:01 | 58.68479 | 85.11458 | 35033 ft | 504 kts | 91° |
| 2026-04-16 10:01 | 58.68189 | 85.24927 | 35029 ft | 504 kts | 91° |
| 2026-04-16 10:02 | 58.67886 | 85.38399 | 35025 ft | 504 kts | 92° |
| 2026-04-16 10:02 | 58.67568 | 85.51866 | 35025 ft | 505 kts | 92° |
| 2026-04-16 10:03 | 58.67230 | 85.65332 | 35025 ft | 505 kts | 92° |
| 2026-04-16 10:03 | 58.66883 | 85.78729 | 35018 ft | 505 kts | 92° |
| 2026-04-16 10:04 | 58.66515 | 85.92204 | 35010 ft | 505 kts | 92° |
| 2026-04-16 10:04 | 58.66208 | 86.03405 | 35011 ft | 505 kts | 92° |
| 2026-04-16 10:05 | 58.65829 | 86.16873 | 35004 ft | 504 kts | 93° |
| 2026-04-16 10:05 | 58.65433 | 86.30314 | 35004 ft | 504 kts | 93° |
| 2026-04-16 10:06 | 58.65018 | 86.43764 | 35004 ft | 504 kts | 93° |
| 2026-04-16 10:06 | 58.64590 | 86.57216 | 35007 ft | 504 kts | 93° |
| 2026-04-16 10:07 | 58.64141 | 86.70568 | 35006 ft | 504 kts | 94° |
| 2026-04-16 10:07 | 58.63772 | 86.84005 | 35005 ft | 504 kts | 91° |
| 2026-04-16 10:08 | 58.63594 | 86.97448 | 35005 ft | 504 kts | 91° |
| 2026-04-16 10:08 | 58.63427 | 87.10894 | 35004 ft | 504 kts | 91° |
| 2026-04-16 10:09 | 58.63184 | 87.24354 | 35005 ft | 504 kts | 92° |
| 2026-04-16 10:09 | 58.62901 | 87.37797 | 34998 ft | 504 kts | 92° |
| 2026-04-16 10:10 | 58.62607 | 87.51236 | 34998 ft | 504 kts | 92° |
| 2026-04-16 10:10 | 58.62309 | 87.64600 | 34996 ft | 504 kts | 92° |
| 2026-04-16 10:11 | 58.61995 | 87.78022 | 34997 ft | 504 kts | 92° |
| 2026-04-16 10:11 | 58.61664 | 87.91446 | 34985 ft | 504 kts | 93° |
| 2026-04-16 10:12 | 58.61347 | 88.04857 | 34986 ft | 503 kts | 92° |
| 2026-04-16 10:12 | 58.61084 | 88.18277 | 34982 ft | 503 kts | 92° |
| 2026-04-16 10:13 | 58.60811 | 88.31691 | 34974 ft | 503 kts | 92° |
| 2026-04-16 10:13 | 58.60512 | 88.45081 | 34965 ft | 502 kts | 92° |
| 2026-04-16 10:14 | 58.60193 | 88.58457 | 34958 ft | 502 kts | 93° |
| 2026-04-16 10:14 | 58.59859 | 88.71836 | 34955 ft | 502 kts | 93° |
| 2026-04-16 10:15 | 58.59512 | 88.85192 | 34947 ft | 502 kts | 93° |
| 2026-04-16 10:15 | 58.59154 | 88.98539 | 34948 ft | 502 kts | 93° |
| 2026-04-16 10:16 | 58.58785 | 89.11811 | 34943 ft | 502 kts | 93° |
| 2026-04-16 10:16 | 58.58389 | 89.25166 | 34949 ft | 502 kts | 94° |
| 2026-04-16 10:17 | 58.57984 | 89.38516 | 34938 ft | 502 kts | 94° |
| 2026-04-16 10:17 | 58.57571 | 89.51867 | 34938 ft | 502 kts | 94° |
| 2026-04-16 10:18 | 58.57141 | 89.65206 | 34937 ft | 502 kts | 94° |
| 2026-04-16 10:18 | 58.56701 | 89.78538 | 34941 ft | 502 kts | 94° |
| 2026-04-16 10:19 | 58.56248 | 89.91883 | 34928 ft | 502 kts | 94° |
| 2026-04-16 10:19 | 58.55780 | 90.05124 | 34923 ft | 502 kts | 94° |
| 2026-04-16 10:20 | 58.55299 | 90.18452 | 34924 ft | 501 kts | 94° |
| 2026-04-16 10:20 | 58.54800 | 90.31759 | 34921 ft | 501 kts | 95° |
| 2026-04-16 10:21 | 58.54285 | 90.45066 | 34921 ft | 501 kts | 95° |
| 2026-04-16 10:21 | 58.53761 | 90.58366 | 34923 ft | 501 kts | 95° |
| 2026-04-16 10:22 | 58.53224 | 90.71648 | 34913 ft | 500 kts | 95° |
| 2026-04-16 10:22 | 58.52670 | 90.84925 | 34911 ft | 500 kts | 95° |
| 2026-04-16 10:23 | 58.52107 | 90.98193 | 34911 ft | 500 kts | 95° |
| 2026-04-16 10:23 | 58.51547 | 91.11356 | 34906 ft | 500 kts | 95° |
| 2026-04-16 10:24 | 58.50963 | 91.24606 | 34905 ft | 500 kts | 95° |
| 2026-04-16 10:24 | 58.50355 | 91.37849 | 34903 ft | 500 kts | 96° |
| 2026-04-16 10:25 | 58.49745 | 91.51091 | 34900 ft | 500 kts | 96° |
| 2026-04-16 10:25 | 58.49126 | 91.64312 | 34897 ft | 499 kts | 96° |
| 2026-04-16 10:26 | 58.48497 | 91.77526 | 34886 ft | 499 kts | 96° |
| 2026-04-16 10:26 | 58.47842 | 91.90735 | 34883 ft | 499 kts | 96° |
| 2026-04-16 10:27 | 58.47165 | 92.03934 | 34874 ft | 498 kts | 96° |
| 2026-04-16 10:27 | 58.46771 | 92.17085 | 34874 ft | 499 kts | 89° |
| 2026-04-16 10:28 | 58.46848 | 92.30322 | 34876 ft | 498 kts | 89° |
| 2026-04-16 10:28 | 58.46892 | 92.43559 | 34868 ft | 498 kts | 90° |
| 2026-04-16 10:29 | 58.46915 | 92.56799 | 34868 ft | 498 kts | 90° |
| 2026-04-16 10:29 | 58.46925 | 92.70011 | 34864 ft | 497 kts | 90° |
| 2026-04-16 10:30 | 58.46929 | 92.83224 | 34862 ft | 497 kts | 90° |
| 2026-04-16 10:30 | 58.46920 | 92.96427 | 34863 ft | 497 kts | 90° |
| 2026-04-16 10:31 | 58.46898 | 93.09529 | 34860 ft | 497 kts | 90° |
| 2026-04-16 10:31 | 58.46864 | 93.22734 | 34861 ft | 496 kts | 90° |
| 2026-04-16 10:32 | 58.46824 | 93.35924 | 34864 ft | 496 kts | 90° |
| 2026-04-16 10:32 | 58.46762 | 93.49106 | 34864 ft | 496 kts | 91° |
| 2026-04-16 10:33 | 58.46679 | 93.62275 | 34858 ft | 496 kts | 91° |
| 2026-04-16 10:33 | 58.46588 | 93.75437 | 34856 ft | 495 kts | 91° |
| 2026-04-16 10:34 | 58.46485 | 93.88597 | 34849 ft | 495 kts | 91° |
| 2026-04-16 10:34 | 58.46364 | 94.01648 | 34846 ft | 495 kts | 91° |
| 2026-04-16 10:35 | 58.46229 | 94.14790 | 34840 ft | 494 kts | 91° |
| 2026-04-16 10:35 | 58.46092 | 94.27915 | 34836 ft | 495 kts | 91° |
| 2026-04-16 10:36 | 58.45943 | 94.41055 | 34839 ft | 495 kts | 91° |
| 2026-04-16 10:36 | 58.45766 | 94.54186 | 34836 ft | 494 kts | 91° |
| 2026-04-16 10:37 | 58.45574 | 94.67299 | 34829 ft | 494 kts | 91° |
| 2026-04-16 10:37 | 58.45384 | 94.80392 | 34827 ft | 493 kts | 91° |
| 2026-04-16 10:38 | 58.45183 | 94.93402 | 34827 ft | 493 kts | 91° |
| 2026-04-16 10:38 | 58.44958 | 95.06481 | 34822 ft | 493 kts | 92° |
| 2026-04-16 10:39 | 58.44713 | 95.19557 | 34822 ft | 492 kts | 92° |
| 2026-04-16 10:39 | 58.44417 | 95.32624 | 34821 ft | 492 kts | 92° |
| 2026-04-16 10:40 | 58.44070 | 95.45683 | 34820 ft | 492 kts | 92° |
| 2026-04-16 10:40 | 58.43723 | 95.58712 | 34823 ft | 492 kts | 92° |
| 2026-04-16 10:41 | 58.43372 | 95.71658 | 34822 ft | 492 kts | 93° |
| 2026-04-16 10:41 | 58.43004 | 95.84688 | 34822 ft | 491 kts | 93° |
| 2026-04-16 10:42 | 58.42622 | 95.97710 | 34820 ft | 491 kts | 93° |
| 2026-04-16 10:42 | 58.42225 | 96.10709 | 34820 ft | 491 kts | 93° |
| 2026-04-16 10:43 | 58.41820 | 96.23715 | 34800 ft | 491 kts | 94° |
| 2026-04-16 10:43 | 58.41391 | 96.36749 | 34781 ft | 493 kts | 94° |
| 2026-04-16 10:44 | 58.40957 | 96.49746 | 34781 ft | 495 kts | 94° |
| 2026-04-16 10:44 | 58.40511 | 96.62875 | 34786 ft | 496 kts | 94° |
| 2026-04-16 10:45 | 58.40054 | 96.76024 | 34792 ft | 497 kts | 94° |
| 2026-04-16 10:45 | 58.39582 | 96.89170 | 34799 ft | 497 kts | 95° |
| 2026-04-16 10:46 | 58.39089 | 97.02319 | 34800 ft | 498 kts | 95° |
| 2026-04-16 10:46 | 58.38585 | 97.15475 | 34805 ft | 497 kts | 95° |
| 2026-04-16 10:47 | 58.38063 | 97.28617 | 34807 ft | 497 kts | 95° |
| 2026-04-16 10:47 | 58.37544 | 97.41756 | 34807 ft | 497 kts | 94° |
| 2026-04-16 10:48 | 58.37218 | 97.54819 | 34811 ft | 497 kts | 92° |
| 2026-04-16 10:48 | 58.36966 | 97.67980 | 34809 ft | 497 kts | 92° |
| 2026-04-16 10:49 | 58.36662 | 97.81131 | 34809 ft | 497 kts | 93° |
| 2026-04-16 10:49 | 58.36296 | 97.94255 | 34810 ft | 496 kts | 94° |
| 2026-04-16 10:50 | 58.35912 | 98.07378 | 34815 ft | 496 kts | 94° |
| 2026-04-16 10:50 | 58.35529 | 98.20498 | 34814 ft | 496 kts | 94° |
| 2026-04-16 10:51 | 58.35146 | 98.33532 | 34816 ft | 496 kts | 94° |
| 2026-04-16 10:51 | 58.34744 | 98.46635 | 34821 ft | 496 kts | 94° |
| 2026-04-16 10:52 | 58.34324 | 98.59734 | 34821 ft | 495 kts | 94° |
| 2026-04-16 10:52 | 58.33890 | 98.72805 | 34815 ft | 495 kts | 94° |
| 2026-04-16 10:53 | 58.33442 | 98.85870 | 34816 ft | 494 kts | 94° |
| 2026-04-16 10:53 | 58.32985 | 98.98919 | 34813 ft | 494 kts | 94° |
| 2026-04-16 10:54 | 58.32506 | 99.11959 | 34819 ft | 494 kts | 94° |
| 2026-04-16 10:54 | 58.32013 | 99.24989 | 34822 ft | 494 kts | 94° |
| 2026-04-16 10:55 | 58.31514 | 99.37931 | 34823 ft | 494 kts | 94° |
| 2026-04-16 10:55 | 58.31009 | 99.50981 | 34823 ft | 494 kts | 95° |
| 2026-04-16 10:56 | 58.30488 | 99.64001 | 34830 ft | 494 kts | 95° |
| 2026-04-16 10:56 | 58.29953 | 99.77023 | 34836 ft | 494 kts | 95° |
| 2026-04-16 10:57 | 58.29409 | 99.90038 | 34834 ft | 494 kts | 95° |
| 2026-04-16 10:57 | 58.28839 | 100.02961 | 34839 ft | 494 kts | 95° |
| 2026-04-16 10:58 | 58.28253 | 100.15967 | 34837 ft | 493 kts | 95° |
| 2026-04-16 10:58 | 58.27669 | 100.28948 | 34840 ft | 493 kts | 95° |
| 2026-04-16 10:59 | 58.27069 | 100.41930 | 34838 ft | 493 kts | 95° |
| 2026-04-16 10:59 | 58.26450 | 100.54894 | 34838 ft | 493 kts | 95° |
| 2026-04-16 11:00 | 58.25827 | 100.67780 | 34836 ft | 493 kts | 96° |
| 2026-04-16 11:00 | 58.25182 | 100.80737 | 34837 ft | 493 kts | 96° |
| 2026-04-16 11:01 | 58.24523 | 100.93691 | 34840 ft | 493 kts | 96° |
| 2026-04-16 11:01 | 58.23858 | 101.06652 | 34833 ft | 493 kts | 96° |
| 2026-04-16 11:02 | 58.23181 | 101.19602 | 34838 ft | 493 kts | 96° |
| 2026-04-16 11:02 | 58.22481 | 101.32543 | 34838 ft | 493 kts | 96° |
| 2026-04-16 11:03 | 58.21797 | 101.45470 | 34842 ft | 493 kts | 96° |
| 2026-04-16 11:04 | 58.20785 | 101.64785 | 34844 ft | 493 kts | 96° |
| 2026-04-16 11:04 | 58.20086 | 101.77717 | 34851 ft | 493 kts | 96° |
| 2026-04-16 11:05 | 58.19379 | 101.90626 | 34857 ft | 492 kts | 96° |
| 2026-04-16 11:05 | 58.18653 | 102.03530 | 34861 ft | 492 kts | 96° |
| 2026-04-16 11:06 | 58.17909 | 102.16415 | 34863 ft | 492 kts | 96° |
| 2026-04-16 11:06 | 58.17162 | 102.29302 | 34867 ft | 492 kts | 96° |
| 2026-04-16 11:07 | 58.16412 | 102.42094 | 34872 ft | 491 kts | 96° |
| 2026-04-16 11:07 | 58.15634 | 102.54948 | 34874 ft | 491 kts | 97° |
| 2026-04-16 11:08 | 58.14849 | 102.67785 | 34877 ft | 491 kts | 96° |
| 2026-04-16 11:08 | 58.14294 | 102.78485 | 34881 ft | 491 kts | 95° |
| 2026-04-16 11:09 | 58.13707 | 102.91346 | 34883 ft | 490 kts | 95° |
| 2026-04-16 11:09 | 58.13097 | 103.04181 | 34889 ft | 490 kts | 95° |
| 2026-04-16 11:10 | 58.12438 | 103.17011 | 34894 ft | 490 kts | 96° |
| 2026-04-16 11:10 | 58.11751 | 103.29828 | 34899 ft | 489 kts | 96° |
| 2026-04-16 11:11 | 58.11058 | 103.42630 | 34901 ft | 489 kts | 96° |
| 2026-04-16 11:11 | 58.10366 | 103.55434 | 34907 ft | 489 kts | 96° |
| 2026-04-16 11:12 | 58.09660 | 103.68130 | 34918 ft | 489 kts | 96° |
| 2026-04-16 11:12 | 58.08932 | 103.80893 | 34923 ft | 488 kts | 96° |
| 2026-04-16 11:13 | 58.08193 | 103.93645 | 34929 ft | 488 kts | 96° |
| 2026-04-16 11:13 | 58.07449 | 104.06386 | 34930 ft | 488 kts | 96° |
| 2026-04-16 11:14 | 58.06691 | 104.19120 | 34935 ft | 487 kts | 97° |
| 2026-04-16 11:14 | 58.05912 | 104.31844 | 34939 ft | 487 kts | 97° |
| 2026-04-16 11:15 | 58.05129 | 104.44455 | 34940 ft | 487 kts | 97° |
| 2026-04-16 11:15 | 58.04334 | 104.57152 | 34942 ft | 487 kts | 97° |
| 2026-04-16 11:16 | 58.03520 | 104.69839 | 34949 ft | 487 kts | 97° |
| 2026-04-16 11:16 | 58.02693 | 104.82511 | 34951 ft | 487 kts | 97° |
| 2026-04-16 11:17 | 58.01864 | 104.95183 | 34955 ft | 486 kts | 97° |
| 2026-04-16 11:17 | 58.01013 | 105.07837 | 34953 ft | 486 kts | 97° |
| 2026-04-16 11:18 | 58.00157 | 105.20483 | 34957 ft | 486 kts | 97° |
| 2026-04-16 11:18 | 57.99286 | 105.33122 | 34954 ft | 486 kts | 98° |
| 2026-04-16 11:19 | 57.98404 | 105.45680 | 34960 ft | 486 kts | 98° |
| 2026-04-16 11:19 | 57.97511 | 105.58299 | 34963 ft | 486 kts | 98° |
| 2026-04-16 11:20 | 57.96596 | 105.70908 | 34965 ft | 486 kts | 98° |
| 2026-04-16 11:20 | 57.95682 | 105.83519 | 34968 ft | 486 kts | 98° |
| 2026-04-16 11:21 | 57.94757 | 105.96112 | 34974 ft | 485 kts | 98° |
| 2026-04-16 11:21 | 57.93808 | 106.08686 | 34977 ft | 485 kts | 98° |
| 2026-04-16 11:22 | 57.92851 | 106.21172 | 34972 ft | 485 kts | 99° |
| 2026-04-16 11:22 | 57.91877 | 106.33725 | 34981 ft | 485 kts | 99° |
| 2026-04-16 11:23 | 57.90902 | 106.46288 | 34986 ft | 485 kts | 99° |
| 2026-04-16 11:23 | 57.89913 | 106.58824 | 34987 ft | 485 kts | 99° |
| 2026-04-16 11:24 | 57.88904 | 106.71347 | 34992 ft | 485 kts | 99° |
| 2026-04-16 11:24 | 57.87887 | 106.83854 | 34992 ft | 484 kts | 99° |
| 2026-04-16 11:25 | 57.86858 | 106.96278 | 34989 ft | 484 kts | 99° |
| 2026-04-16 11:25 | 57.85816 | 107.08782 | 34995 ft | 484 kts | 99° |
| 2026-04-16 11:26 | 57.84765 | 107.21261 | 34996 ft | 484 kts | 99° |
| 2026-04-16 11:26 | 57.83699 | 107.33736 | 35000 ft | 484 kts | 99° |
| 2026-04-16 11:27 | 57.82621 | 107.46205 | 34998 ft | 484 kts | 100° |
| 2026-04-16 11:27 | 57.81529 | 107.58656 | 35001 ft | 484 kts | 100° |
| 2026-04-16 11:28 | 57.80438 | 107.71017 | 35010 ft | 483 kts | 100° |
| 2026-04-16 11:28 | 57.79323 | 107.83527 | 35008 ft | 483 kts | 100° |
| 2026-04-16 11:29 | 57.78205 | 107.95863 | 35003 ft | 483 kts | 100° |
| 2026-04-16 11:29 | 57.76976 | 108.08232 | 35008 ft | 482 kts | 106° |
| 2026-04-16 11:30 | 57.75154 | 108.20300 | 35009 ft | 482 kts | 107° |
| 2026-04-16 11:30 | 57.73329 | 108.32379 | 35006 ft | 482 kts | 107° |
| 2026-04-16 11:31 | 57.71494 | 108.44440 | 35006 ft | 482 kts | 107° |
| 2026-04-16 11:31 | 57.69638 | 108.56474 | 35008 ft | 482 kts | 107° |
| 2026-04-16 11:32 | 57.67766 | 108.68477 | 35016 ft | 481 kts | 107° |
| 2026-04-16 11:32 | 57.65887 | 108.80500 | 35004 ft | 481 kts | 107° |
| 2026-04-16 11:33 | 57.64018 | 108.92406 | 35012 ft | 481 kts | 107° |
| 2026-04-16 11:33 | 57.62114 | 109.04372 | 35016 ft | 481 kts | 107° |
| 2026-04-16 11:34 | 57.60203 | 109.16348 | 35012 ft | 481 kts | 107° |
| 2026-04-16 11:34 | 57.58280 | 109.28298 | 35014 ft | 481 kts | 107° |
| 2026-04-16 11:35 | 57.56377 | 109.40249 | 35015 ft | 481 kts | 107° |
| 2026-04-16 11:35 | 57.54481 | 109.52191 | 35009 ft | 481 kts | 107° |
| 2026-04-16 11:36 | 57.52561 | 109.64115 | 35015 ft | 481 kts | 108° |
| 2026-04-16 11:36 | 57.50615 | 109.76021 | 35015 ft | 481 kts | 108° |
| 2026-04-16 11:37 | 57.48685 | 109.87826 | 35016 ft | 481 kts | 108° |
| 2026-04-16 11:37 | 57.46733 | 109.99712 | 35018 ft | 481 kts | 108° |
| 2026-04-16 11:38 | 57.44765 | 110.11573 | 35016 ft | 481 kts | 108° |
| 2026-04-16 11:38 | 57.42779 | 110.23417 | 35015 ft | 481 kts | 108° |
| 2026-04-16 11:39 | 57.40792 | 110.35252 | 35014 ft | 480 kts | 108° |
| 2026-04-16 11:39 | 57.38793 | 110.47079 | 35018 ft | 480 kts | 108° |
| 2026-04-16 11:40 | 57.36790 | 110.58809 | 35021 ft | 480 kts | 108° |
| 2026-04-16 11:40 | 57.34771 | 110.70608 | 35025 ft | 480 kts | 108° |
| 2026-04-16 11:41 | 57.32747 | 110.82400 | 35026 ft | 480 kts | 108° |
| 2026-04-16 11:41 | 57.30706 | 110.94155 | 35030 ft | 480 kts | 109° |
| 2026-04-16 11:42 | 57.28642 | 111.05912 | 35030 ft | 480 kts | 109° |
| 2026-04-16 11:42 | 57.26577 | 111.17638 | 35038 ft | 480 kts | 109° |
| 2026-04-16 11:43 | 57.24510 | 111.29279 | 35036 ft | 480 kts | 109° |
| 2026-04-16 11:43 | 57.22423 | 111.40996 | 35040 ft | 480 kts | 109° |
| 2026-04-16 11:44 | 57.20329 | 111.52687 | 35041 ft | 480 kts | 109° |
| 2026-04-16 11:44 | 57.18216 | 111.64361 | 35043 ft | 480 kts | 109° |
| 2026-04-16 11:45 | 57.16062 | 111.76015 | 35044 ft | 480 kts | 110° |
| 2026-04-16 11:45 | 57.13901 | 111.87558 | 35041 ft | 480 kts | 110° |
| 2026-04-16 11:46 | 57.11717 | 111.99162 | 35046 ft | 480 kts | 110° |
| 2026-04-16 11:46 | 57.09528 | 112.10748 | 35043 ft | 480 kts | 110° |
| 2026-04-16 11:47 | 57.07337 | 112.22327 | 35041 ft | 480 kts | 110° |
| 2026-04-16 11:47 | 57.05128 | 112.33894 | 35044 ft | 479 kts | 110° |
| 2026-04-16 11:48 | 57.02913 | 112.45443 | 35052 ft | 479 kts | 110° |
| 2026-04-16 11:48 | 57.00691 | 112.56979 | 35052 ft | 479 kts | 110° |
| 2026-04-16 11:49 | 56.98455 | 112.68501 | 35051 ft | 479 kts | 110° |
| 2026-04-16 11:49 | 56.96220 | 112.79923 | 35053 ft | 479 kts | 110° |
| 2026-04-16 11:50 | 56.93955 | 112.91413 | 35052 ft | 479 kts | 111° |
| 2026-04-16 11:50 | 56.91686 | 113.02887 | 35056 ft | 479 kts | 111° |
| 2026-04-16 11:51 | 56.89406 | 113.14357 | 35064 ft | 479 kts | 111° |
| 2026-04-16 11:51 | 56.87112 | 113.25793 | 35059 ft | 479 kts | 111° |
| 2026-04-16 11:52 | 56.84823 | 113.37155 | 35063 ft | 479 kts | 111° |
| 2026-04-16 11:52 | 56.82512 | 113.48578 | 35066 ft | 479 kts | 111° |
| 2026-04-16 11:53 | 56.80188 | 113.59994 | 35069 ft | 479 kts | 111° |
| 2026-04-16 11:53 | 56.77860 | 113.71381 | 35077 ft | 479 kts | 111° |
| 2026-04-16 11:54 | 56.75514 | 113.82774 | 35075 ft | 479 kts | 111° |
| 2026-04-16 11:54 | 56.73176 | 113.94059 | 35073 ft | 479 kts | 111° |
| 2026-04-16 11:55 | 56.70814 | 114.05403 | 35071 ft | 479 kts | 111° |
| 2026-04-16 11:55 | 56.68439 | 114.16746 | 35068 ft | 479 kts | 112° |
| 2026-04-16 11:56 | 56.66055 | 114.28054 | 35067 ft | 479 kts | 112° |
| 2026-04-16 11:56 | 56.63655 | 114.39373 | 35063 ft | 479 kts | 112° |
| 2026-04-16 11:57 | 56.61257 | 114.50661 | 35060 ft | 479 kts | 112° |
| 2026-04-16 11:57 | 56.58861 | 114.61886 | 35055 ft | 479 kts | 112° |
| 2026-04-16 11:58 | 56.56435 | 114.73149 | 35056 ft | 480 kts | 112° |
| 2026-04-16 11:58 | 56.53991 | 114.84390 | 35051 ft | 479 kts | 112° |
| 2026-04-16 11:59 | 56.51536 | 114.95631 | 35052 ft | 480 kts | 112° |
| 2026-04-16 11:59 | 56.49083 | 115.06862 | 35048 ft | 480 kts | 112° |
| 2026-04-16 12:00 | 56.46620 | 115.18089 | 35051 ft | 480 kts | 113° |
| 2026-04-16 12:00 | 56.44153 | 115.29220 | 35053 ft | 480 kts | 113° |
| 2026-04-16 12:01 | 56.41657 | 115.40410 | 35051 ft | 480 kts | 113° |
| 2026-04-16 12:01 | 56.39156 | 115.51610 | 35062 ft | 481 kts | 113° |
| 2026-04-16 12:02 | 56.35387 | 115.68373 | 35062 ft | 481 kts | 113° |
| 2026-04-16 12:02 | 56.32851 | 115.79534 | 35056 ft | 481 kts | 113° |
| 2026-04-16 12:03 | 56.30331 | 115.90613 | 35060 ft | 481 kts | 113° |
| 2026-04-16 12:03 | 56.27772 | 116.01814 | 35062 ft | 481 kts | 114° |
| 2026-04-16 12:04 | 56.25230 | 116.12854 | 35049 ft | 481 kts | 114° |
| 2026-04-16 12:04 | 56.22662 | 116.23943 | 35057 ft | 480 kts | 114° |
| 2026-04-16 12:05 | 56.20080 | 116.35014 | 35059 ft | 480 kts | 114° |
| 2026-04-16 12:05 | 56.17499 | 116.46078 | 35052 ft | 481 kts | 114° |
| 2026-04-16 12:06 | 56.14907 | 116.57129 | 35057 ft | 481 kts | 114° |
| 2026-04-16 12:06 | 56.12297 | 116.68164 | 35059 ft | 481 kts | 114° |
| 2026-04-16 12:07 | 56.09672 | 116.79188 | 35067 ft | 481 kts | 114° |
| 2026-04-16 12:07 | 56.07042 | 116.90188 | 35065 ft | 481 kts | 114° |
| 2026-04-16 12:08 | 56.04424 | 117.01111 | 35056 ft | 481 kts | 115° |
| 2026-04-16 12:08 | 56.01781 | 117.12082 | 35065 ft | 480 kts | 115° |
| 2026-04-16 12:09 | 55.99126 | 117.23032 | 35063 ft | 480 kts | 115° |
| 2026-04-16 12:09 | 55.96463 | 117.33956 | 35053 ft | 480 kts | 115° |
| 2026-04-16 12:10 | 55.93799 | 117.44879 | 35053 ft | 480 kts | 115° |
| 2026-04-16 12:10 | 55.91124 | 117.55778 | 35052 ft | 480 kts | 115° |
| 2026-04-16 12:11 | 55.88448 | 117.66594 | 35047 ft | 480 kts | 115° |
| 2026-04-16 12:11 | 55.85746 | 117.77463 | 35044 ft | 480 kts | 115° |
| 2026-04-16 12:12 | 55.83034 | 117.88322 | 35038 ft | 480 kts | 116° |
| 2026-04-16 12:12 | 55.80298 | 117.99157 | 35030 ft | 481 kts | 116° |
| 2026-04-16 12:13 | 55.78011 | 118.08152 | 35024 ft | 480 kts | 116° |
| 2026-04-16 12:13 | 55.75260 | 118.18962 | 35023 ft | 480 kts | 116° |
| 2026-04-16 12:14 | 55.72539 | 118.29795 | 35022 ft | 481 kts | 116° |
| 2026-04-16 12:14 | 55.69814 | 118.40624 | 35020 ft | 481 kts | 116° |
| 2026-04-16 12:15 | 55.67086 | 118.51352 | 35021 ft | 481 kts | 116° |
| 2026-04-16 12:15 | 55.64324 | 118.62136 | 35022 ft | 481 kts | 116° |
| 2026-04-16 12:16 | 55.61554 | 118.72902 | 35022 ft | 481 kts | 116° |
| 2026-04-16 12:16 | 55.58778 | 118.83646 | 35015 ft | 481 kts | 116° |
| 2026-04-16 12:17 | 55.55985 | 118.94373 | 35012 ft | 480 kts | 116° |
| 2026-04-16 12:17 | 55.53337 | 119.05225 | 35003 ft | 481 kts | 114° |
| 2026-04-16 12:18 | 55.50870 | 119.16203 | 35005 ft | 482 kts | 113° |
| 2026-04-16 12:18 | 55.48385 | 119.27171 | 35000 ft | 481 kts | 114° |
| 2026-04-16 12:19 | 55.45846 | 119.38001 | 35001 ft | 481 kts | 114° |
| 2026-04-16 12:19 | 55.43255 | 119.48867 | 34997 ft | 481 kts | 115° |
| 2026-04-16 12:20 | 55.40450 | 119.59544 | 34990 ft | 480 kts | 118° |
| 2026-04-16 12:20 | 55.37473 | 119.70048 | 34985 ft | 480 kts | 118° |
| 2026-04-16 12:21 | 55.34503 | 119.80540 | 34982 ft | 480 kts | 118° |
| 2026-04-16 12:21 | 55.31578 | 119.91063 | 34979 ft | 479 kts | 118° |
| 2026-04-16 12:22 | 55.28657 | 120.01580 | 34977 ft | 479 kts | 118° |
| 2026-04-16 12:22 | 55.25738 | 120.11996 | 34977 ft | 479 kts | 118° |
| 2026-04-16 12:23 | 55.22780 | 120.22460 | 34974 ft | 479 kts | 118° |
| 2026-04-16 12:23 | 55.19820 | 120.32917 | 34975 ft | 479 kts | 118° |
| 2026-04-16 12:24 | 55.16856 | 120.43364 | 34980 ft | 479 kts | 119° |
| 2026-04-16 12:24 | 55.13886 | 120.53789 | 34984 ft | 479 kts | 119° |
| 2026-04-16 12:25 | 55.10900 | 120.64218 | 34984 ft | 479 kts | 119° |
| 2026-04-16 12:25 | 55.07921 | 120.74528 | 34991 ft | 479 kts | 119° |
| 2026-04-16 12:26 | 55.04911 | 120.84916 | 34996 ft | 480 kts | 119° |
| 2026-04-16 12:26 | 55.01899 | 120.95287 | 34998 ft | 479 kts | 119° |
| 2026-04-16 12:27 | 54.98869 | 121.05637 | 35000 ft | 479 kts | 120° |
| 2026-04-16 12:27 | 54.95844 | 121.15970 | 35005 ft | 479 kts | 120° |
| 2026-04-16 12:28 | 54.92825 | 121.26225 | 35005 ft | 479 kts | 120° |
| 2026-04-16 12:28 | 54.89782 | 121.36523 | 35004 ft | 479 kts | 120° |
| 2026-04-16 12:29 | 54.86728 | 121.46789 | 35011 ft | 478 kts | 120° |
| 2026-04-16 12:29 | 54.83662 | 121.57033 | 35007 ft | 478 kts | 120° |
| 2026-04-16 12:30 | 54.80592 | 121.67269 | 35006 ft | 478 kts | 120° |
| 2026-04-16 12:30 | 54.77525 | 121.77485 | 35006 ft | 478 kts | 120° |
| 2026-04-16 12:31 | 54.74467 | 121.87608 | 34999 ft | 477 kts | 120° |
| 2026-04-16 12:31 | 54.71371 | 121.97765 | 34993 ft | 477 kts | 121° |
| 2026-04-16 12:32 | 54.68272 | 122.07909 | 34986 ft | 477 kts | 121° |
| 2026-04-16 12:32 | 54.65180 | 122.18048 | 34980 ft | 477 kts | 120° |
| 2026-04-16 12:33 | 54.62136 | 122.28215 | 34970 ft | 477 kts | 120° |
| 2026-04-16 12:33 | 54.59100 | 122.38393 | 34966 ft | 477 kts | 120° |
| 2026-04-16 12:34 | 54.56030 | 122.48532 | 34955 ft | 477 kts | 121° |
| 2026-04-16 12:34 | 54.52944 | 122.58636 | 34952 ft | 477 kts | 121° |
| 2026-04-16 12:35 | 54.49848 | 122.68652 | 34943 ft | 477 kts | 121° |
| 2026-04-16 12:35 | 54.46713 | 122.78724 | 34936 ft | 477 kts | 121° |
| 2026-04-16 12:36 | 54.43577 | 122.88781 | 34931 ft | 478 kts | 121° |
| 2026-04-16 12:36 | 54.40443 | 122.98830 | 34924 ft | 478 kts | 121° |
| 2026-04-16 12:37 | 54.37291 | 123.08868 | 34921 ft | 478 kts | 122° |
| 2026-04-16 12:37 | 54.34124 | 123.18892 | 34919 ft | 478 kts | 122° |
| 2026-04-16 12:38 | 54.30970 | 123.28839 | 34919 ft | 479 kts | 122° |
| 2026-04-16 12:38 | 54.27783 | 123.38857 | 34916 ft | 479 kts | 122° |
| 2026-04-16 12:39 | 54.24590 | 123.48868 | 34918 ft | 480 kts | 122° |
| 2026-04-16 12:39 | 54.21376 | 123.58864 | 34911 ft | 480 kts | 122° |
| 2026-04-16 12:40 | 54.18162 | 123.68846 | 34908 ft | 480 kts | 122° |
| 2026-04-16 12:40 | 54.14936 | 123.78811 | 34905 ft | 480 kts | 122° |
| 2026-04-16 12:41 | 54.11705 | 123.88780 | 34902 ft | 480 kts | 123° |
| 2026-04-16 12:41 | 54.08479 | 123.98660 | 34901 ft | 480 kts | 123° |
| 2026-04-16 12:42 | 54.05222 | 124.08589 | 34895 ft | 480 kts | 123° |
| 2026-04-16 12:42 | 54.01961 | 124.18508 | 34892 ft | 480 kts | 123° |
| 2026-04-16 12:43 | 53.98695 | 124.28419 | 34893 ft | 480 kts | 123° |
| 2026-04-16 12:43 | 53.95416 | 124.38311 | 34890 ft | 481 kts | 123° |
| 2026-04-16 12:44 | 53.92122 | 124.48197 | 34888 ft | 481 kts | 123° |
| 2026-04-16 12:44 | 53.88822 | 124.58065 | 34895 ft | 481 kts | 123° |
| 2026-04-16 12:45 | 53.85533 | 124.67865 | 34898 ft | 481 kts | 123° |
| 2026-04-16 12:45 | 53.82215 | 124.77715 | 34896 ft | 481 kts | 123° |
| 2026-04-16 12:46 | 53.78895 | 124.87531 | 34894 ft | 481 kts | 124° |
| 2026-04-16 12:46 | 53.75565 | 124.97329 | 34889 ft | 480 kts | 124° |
| 2026-04-16 12:47 | 53.72228 | 125.07109 | 34883 ft | 480 kts | 124° |
| 2026-04-16 12:47 | 53.68896 | 125.16811 | 34886 ft | 480 kts | 124° |
| 2026-04-16 12:48 | 53.65544 | 125.26557 | 34881 ft | 480 kts | 124° |
| 2026-04-16 12:48 | 53.62184 | 125.36290 | 34878 ft | 480 kts | 124° |
| 2026-04-16 12:49 | 53.58816 | 125.46023 | 34875 ft | 480 kts | 124° |
| 2026-04-16 12:49 | 53.55434 | 125.55725 | 34875 ft | 480 kts | 124° |
| 2026-04-16 12:50 | 53.52040 | 125.65407 | 34882 ft | 481 kts | 124° |
| 2026-04-16 12:50 | 53.48622 | 125.75051 | 34869 ft | 479 kts | 128° |
| 2026-04-16 12:51 | 53.44283 | 125.83304 | 34871 ft | 467 kts | 145° |
| 2026-04-16 12:51 | 53.39202 | 125.90054 | 34873 ft | 466 kts | 147° |
| 2026-04-16 12:52 | 53.34114 | 125.96795 | 34873 ft | 467 kts | 147° |
| 2026-04-16 12:52 | 53.29047 | 126.03490 | 34876 ft | 467 kts | 147° |
| 2026-04-16 12:53 | 53.23940 | 126.10219 | 34879 ft | 467 kts | 147° |
| 2026-04-16 12:53 | 53.18832 | 126.16938 | 34879 ft | 468 kts | 147° |
| 2026-04-16 12:54 | 53.13714 | 126.23643 | 34883 ft | 468 kts | 147° |
| 2026-04-16 12:54 | 53.08580 | 126.30322 | 34889 ft | 468 kts | 147° |
| 2026-04-16 12:55 | 53.03452 | 126.36992 | 34891 ft | 468 kts | 147° |
| 2026-04-16 12:55 | 52.98313 | 126.43658 | 34891 ft | 469 kts | 147° |
| 2026-04-16 12:56 | 52.93165 | 126.50296 | 34893 ft | 469 kts | 147° |
| 2026-04-16 12:56 | 52.88046 | 126.56882 | 34898 ft | 469 kts | 147° |
| 2026-04-16 12:57 | 52.82892 | 126.63514 | 34899 ft | 469 kts | 147° |
| 2026-04-16 12:57 | 52.77737 | 126.70126 | 34898 ft | 469 kts | 148° |
| 2026-04-16 12:58 | 52.72573 | 126.76727 | 34897 ft | 469 kts | 148° |
| 2026-04-16 12:58 | 52.67404 | 126.83303 | 34901 ft | 469 kts | 148° |
| 2026-04-16 12:59 | 52.62230 | 126.89872 | 34904 ft | 470 kts | 148° |
| 2026-04-16 13:00 | 52.54453 | 126.99697 | 34895 ft | 470 kts | 148° |
| 2026-04-16 13:00 | 52.49260 | 127.06241 | 34895 ft | 470 kts | 148° |
| 2026-04-16 13:01 | 52.43725 | 127.11451 | 34893 ft | 456 kts | 165° |
| 2026-04-16 13:01 | 52.37648 | 127.13738 | 34899 ft | 443 kts | 182° |
| 2026-04-16 13:02 | 52.31519 | 127.14146 | 34899 ft | 441 kts | 184° |
| 2026-04-16 13:02 | 52.25385 | 127.14534 | 34894 ft | 441 kts | 184° |
| 2026-04-16 13:03 | 52.19254 | 127.14923 | 34892 ft | 441 kts | 184° |
| 2026-04-16 13:03 | 52.13122 | 127.15299 | 34894 ft | 441 kts | 184° |
| 2026-04-16 13:04 | 52.06988 | 127.15670 | 34888 ft | 441 kts | 184° |
| 2026-04-16 13:04 | 52.05741 | 127.15742 | 34888 ft | 441 kts | 184° |
| 2026-04-16 13:25 | 52.02331 | 127.16020 | 34917 ft | 441 kts | 183° |
| 2026-04-16 13:25 | 51.96195 | 127.16402 | 34917 ft | 441 kts | 184° |
| 2026-04-16 13:26 | 51.90055 | 127.16727 | 34912 ft | 441 kts | 184° |
| 2026-04-16 13:26 | 51.83960 | 127.17072 | 34907 ft | 441 kts | 184° |
| 2026-04-16 13:27 | 51.77827 | 127.17439 | 34906 ft | 441 kts | 184° |
| 2026-04-16 13:27 | 51.71691 | 127.17906 | 34899 ft | 444 kts | 179° |
| 2026-04-16 13:28 | 51.65604 | 127.20292 | 34901 ft | 454 kts | 170° |
| 2026-04-16 13:28 | 51.59554 | 127.23201 | 34896 ft | 454 kts | 170° |
| 2026-04-16 13:29 | 51.53492 | 127.26081 | 34886 ft | 455 kts | 171° |
| 2026-04-16 13:29 | 51.50454 | 127.27518 | 34610 ft | 454 kts | 171° |
| 2026-04-16 13:29 | 51.47416 | 127.28954 | 33640 ft | 458 kts | 171° |
| 2026-04-16 13:29 | 51.44356 | 127.30400 | 32679 ft | 458 kts | 171° |
| 2026-04-16 13:30 | 51.41296 | 127.31853 | 31698 ft | 459 kts | 172° |
| 2026-04-16 13:30 | 51.38234 | 127.33306 | 30729 ft | 458 kts | 173° |
| 2026-04-16 13:30 | 51.35218 | 127.34733 | 29685 ft | 458 kts | 173° |
| 2026-04-16 13:30 | 51.32156 | 127.36173 | 28528 ft | 458 kts | 173° |
| 2026-04-16 13:31 | 51.29101 | 127.37608 | 27451 ft | 457 kts | 172° |
| 2026-04-16 13:31 | 51.26053 | 127.39039 | 26280 ft | 458 kts | 172° |
| 2026-04-16 13:31 | 51.22985 | 127.40474 | 25033 ft | 461 kts | 171° |
| 2026-04-16 13:31 | 51.19893 | 127.41916 | 23832 ft | 464 kts | 171° |
| 2026-04-16 13:32 | 51.16790 | 127.43366 | 22700 ft | 464 kts | 171° |
| 2026-04-16 13:32 | 51.13717 | 127.44813 | 21863 ft | 457 kts | 170° |
| 2026-04-16 13:32 | 51.10681 | 127.46243 | 21029 ft | 451 kts | 170° |
| 2026-04-16 13:32 | 51.07688 | 127.47644 | 20213 ft | 447 kts | 170° |
| 2026-04-16 13:33 | 51.04717 | 127.49028 | 19405 ft | 443 kts | 170° |
| 2026-04-16 13:33 | 51.01761 | 127.50402 | 18618 ft | 440 kts | 170° |
| 2026-04-16 13:33 | 50.98828 | 127.51758 | 17771 ft | 437 kts | 170° |
| 2026-04-16 13:33 | 50.95927 | 127.53098 | 17022 ft | 433 kts | 170° |
| 2026-04-16 13:34 | 50.93055 | 127.54429 | 16287 ft | 428 kts | 169° |
| 2026-04-16 13:34 | 50.90247 | 127.55985 | 15591 ft | 429 kts | 162° |
| 2026-04-16 13:34 | 50.87609 | 127.58195 | 14888 ft | 429 kts | 154° |
| 2026-04-16 13:34 | 50.85081 | 127.60544 | 14211 ft | 425 kts | 154° |
| 2026-04-16 13:35 | 50.82540 | 127.62894 | 13544 ft | 421 kts | 154° |
| 2026-04-16 13:35 | 50.80026 | 127.65209 | 12821 ft | 416 kts | 154° |
| 2026-04-16 13:35 | 50.77536 | 127.67496 | 12116 ft | 411 kts | 154° |
| 2026-04-16 13:35 | 50.75080 | 127.69751 | 11423 ft | 406 kts | 154° |
| 2026-04-16 13:36 | 50.72655 | 127.71975 | 10746 ft | 401 kts | 153° |
| 2026-04-16 13:36 | 50.70256 | 127.74171 | 10129 ft | 394 kts | 153° |
| 2026-04-16 13:36 | 50.67936 | 127.76297 | 9903 ft | 377 kts | 153° |
| 2026-04-16 13:36 | 50.65729 | 127.78323 | 9878 ft | 356 kts | 153° |
| 2026-04-16 13:37 | 50.63654 | 127.80228 | 9889 ft | 335 kts | 154° |
| 2026-04-16 13:37 | 50.61691 | 127.82024 | 9888 ft | 317 kts | 154° |
| 2026-04-16 13:37 | 50.59832 | 127.83719 | 9889 ft | 301 kts | 154° |
| 2026-04-16 13:37 | 50.58049 | 127.85339 | 9889 ft | 293 kts | 155° |
| 2026-04-16 13:38 | 50.56240 | 127.86600 | 9889 ft | 285 kts | 171° |
| 2026-04-16 13:38 | 50.54312 | 127.86936 | 9892 ft | 277 kts | 188° |
| 2026-04-16 13:38 | 50.52434 | 127.86362 | 9735 ft | 273 kts | 204° |
| 2026-04-16 13:38 | 50.50781 | 127.84935 | 9234 ft | 268 kts | 222° |
| 2026-04-16 13:39 | 50.49396 | 127.82982 | 8753 ft | 268 kts | 226° |
| 2026-04-16 13:39 | 50.48034 | 127.81007 | 8294 ft | 268 kts | 225° |
| 2026-04-16 13:39 | 50.46672 | 127.79039 | 7874 ft | 266 kts | 225° |
| 2026-04-16 13:39 | 50.45309 | 127.77066 | 7479 ft | 265 kts | 225° |
| 2026-04-16 13:40 | 50.43962 | 127.75116 | 7070 ft | 263 kts | 225° |
| 2026-04-16 13:40 | 50.42613 | 127.73169 | 6634 ft | 264 kts | 225° |
| 2026-04-16 13:40 | 50.41262 | 127.71222 | 6204 ft | 263 kts | 225° |
| 2026-04-16 13:40 | 50.39934 | 127.69310 | 5762 ft | 262 kts | 225° |
| 2026-04-16 13:41 | 50.38591 | 127.67377 | 5296 ft | 260 kts | 225° |
| 2026-04-16 13:41 | 50.37266 | 127.65471 | 4654 ft | 258 kts | 225° |
| 2026-04-16 13:41 | 50.35950 | 127.63585 | 4162 ft | 255 kts | 225° |
| 2026-04-16 13:41 | 50.34728 | 127.61595 | 3718 ft | 251 kts | 237° |
| 2026-04-16 13:42 | 50.33878 | 127.59364 | 3622 ft | 227 kts | 244° |
| 2026-04-16 13:42 | 50.33115 | 127.57255 | 3560 ft | 222 kts | 243° |
| 2026-04-16 13:42 | 50.32351 | 127.55161 | 3466 ft | 221 kts | 243° |
| 2026-04-16 13:42 | 50.31589 | 127.53074 | 3365 ft | 220 kts | 243° |
| 2026-04-16 13:43 | 50.30848 | 127.51046 | 3262 ft | 207 kts | 244° |
| 2026-04-16 13:43 | 50.30268 | 127.49120 | 3152 ft | 192 kts | 263° |
| 2026-04-16 13:43 | 50.30360 | 127.47111 | 2933 ft | 184 kts | 295° |
| 2026-04-16 13:43 | 50.31131 | 127.45572 | 2744 ft | 182 kts | 325° |
| 2026-04-16 13:44 | 50.32294 | 127.44916 | 2573 ft | 174 kts | 345° |
| 2026-04-16 13:44 | 50.33455 | 127.44545 | 2323 ft | 166 kts | 345° |
| 2026-04-16 13:44 | 50.34537 | 127.44197 | 2106 ft | 149 kts | 345° |
| 2026-04-16 13:44 | 50.35514 | 127.43882 | 1900 ft | 140 kts | 344° |
| 2026-04-16 13:45 | 50.36456 | 127.43576 | 1721 ft | 137 kts | 344° |
| 2026-04-16 13:45 | 50.37386 | 127.43275 | 1511 ft | 137 kts | 345° |
| 2026-04-16 13:45 | 50.38315 | 127.42973 | 1323 ft | 139 kts | 346° |
| 2026-04-16 13:45 | 50.39269 | 127.42664 | 1131 ft | 141 kts | 347° |
| 2026-04-16 13:46 | 50.40229 | 127.42350 | 945 ft | 141 kts | 347° |
| 2026-04-16 13:46 | 50.41193 | 127.42038 | 741 ft | 141 kts | 347° |
| 2026-04-16 13:46 | 50.42114 | 127.41736 | 660 ft | 123 kts | 347° |
| 2026-04-16 13:46 | 50.42796 | 127.41523 | 657 ft | 76 kts | 349° |
| 2026-04-16 13:47 | 50.43143 | 127.41405 | 658 ft | 26 kts | 347° |
| 2026-04-16 13:47 | 50.43192 | 127.41389 | 658 ft | 1 kts | 348° |
| 2026-04-16 13:47 | 50.43235 | 127.41392 | 658 ft | 13 kts | 11° |
| 2026-04-16 13:47 | 50.43257 | 127.41367 | 657 ft | 2 kts | 216° |
| 2026-04-16 13:48 | 50.43200 | 127.41397 | 658 ft | 13 kts | 162° |
| 2026-04-16 13:48 | 50.43094 | 127.41421 | 658 ft | 22 kts | 170° |
| 2026-04-16 13:48 | 50.42915 | 127.41441 | 657 ft | 26 kts | 197° |
| 2026-04-16 13:48 | 50.42778 | 127.41280 | 658 ft | 11 kts | 217° |
| 2026-04-16 13:49 | 50.42743 | 127.41239 | 658 ft | 0 kts | 217° |
| 2026-04-16 13:50 | 50.42737 | 127.41232 | 658 ft | 7 kts | 216° |
| 2026-04-16 13:50 | 50.42632 | 127.41218 | 657 ft | 23 kts | 168° |
| 2026-04-16 13:50 | 50.42442 | 127.41279 | 657 ft | 31 kts | 168° |
| 2026-04-16 13:50 | 50.42275 | 127.41331 | 657 ft | 11 kts | 171° |
| 2026-04-16 13:51 | 50.42230 | 127.41270 | 657 ft | 9 kts | 254° |
| 2026-04-16 13:51 | 50.42214 | 127.41142 | 657 ft | 14 kts | 259° |
| 2026-04-16 13:51 | 50.42219 | 127.41069 | 657 ft | 9 kts | 306° |
| 2026-04-16 13:51 | 50.42283 | 127.41034 | 657 ft | 9 kts | 351° |
| 2026-04-16 13:52 | 50.42341 | 127.41008 | 657 ft | 8 kts | 327° |
| 2026-04-16 13:52 | 50.42347 | 127.40944 | 657 ft | 1 kts | 258° |